Time;durP1;ratioP1;P1;durP2;ratioP2;P2;SDS_P1;SDS_P2;PMS_P1;PMS_P2;Temp;Humidity;BMP_temperature;BMP_pressure;BME280_temperature;BME280_humidity;BME280_pressure;Samples;Min_cycle;Max_cycle;Signal;HPM_P1;HPM_P2
2021/06/03 05:55:20;;;;;;;4.18;2.72;;;;;;;;;;10769867;27;20393;-86
2021/06/03 06:00:35;;;;;;;3.78;3.00;;;;;;;;;;10705621;27;20094;-86
2021/06/03 10:14:28;;;;;;;5.13;4.22;;;;;;;;;;10604658;22;20405;-89
2021/06/03 15:59:18;;;;;;;5.32;3.50;;;;;;;;;;10595740;27;20039;-86
2021/06/03 16:04:22;;;;;;;3.90;3.50;;;;;;;;;;10577892;28;20067;-87
2021/06/03 16:09:30;;;;;;;4.63;3.25;;;;;;;;;;10587283;28;20051;-87
2021/06/03 16:14:31;;;;;;;4.18;3.15;;;;;;;;;;10568356;28;20036;-87
2021/06/03 16:19:32;;;;;;;3.75;3.17;;;;;;;;;;10567463;28;20038;-87
2021/06/03 16:24:33;;;;;;;4.28;3.10;;;;;;;;;;10568176;28;20509;-87
2021/06/03 16:29:39;;;;;;;3.13;2.80;;;;;;;;;;10568358;28;20036;-86
2021/06/03 16:34:40;;;;;;;3.45;3.15;;;;;;;;;;10568037;28;20401;-86
2021/06/03 16:39:41;;;;;;;4.10;3.00;;;;;;;;;;10585558;28;20037;-87
2021/06/03 16:44:50;;;;;;;3.35;2.50;;;;;;;;;;10575591;28;20039;-87
2021/06/03 16:49:51;;;;;;;3.03;2.35;;;;;;;;;;10567122;28;20039;-87
2021/06/03 16:54:53;;;;;;;3.25;2.42;;;;;;;;;;10567334;28;20038;-88
2021/06/03 16:59:54;;;;;;;3.30;2.80;;;;;;;;;;10573006;28;20062;-85
2021/06/03 17:04:55;;;;;;;4.18;3.22;;;;;;;;;;10568830;28;20043;-87
2021/06/03 17:09:56;;;;;;;4.30;3.20;;;;;;;;;;10566993;28;20040;-87
2021/06/03 17:14:57;;;;;;;3.20;2.90;;;;;;;;;;10565675;28;20028;-87
2021/06/03 17:19:58;;;;;;;4.93;3.22;;;;;;;;;;10583992;28;20031;-87
2021/06/03 17:24:59;;;;;;;3.58;3.25;;;;;;;;;;10565512;28;20035;-87
2021/06/03 17:30:00;;;;;;;4.38;3.67;;;;;;;;;;10565721;28;20034;-87
2021/06/03 17:35:02;;;;;;;3.30;3.00;;;;;;;;;;10566054;28;20126;-87
2021/06/03 17:40:05;;;;;;;5.03;3.38;;;;;;;;;;10566244;28;20256;-87
2021/06/03 17:45:08;;;;;;;4.75;4.00;;;;;;;;;;10566719;28;20035;-86
2021/06/03 17:50:09;;;;;;;3.40;3.10;;;;;;;;;;10567118;28;20085;-87
2021/06/03 17:55:11;;;;;;;4.32;3.50;;;;;;;;;;10583142;28;20119;-87
2021/06/03 18:00:14;;;;;;;3.40;3.10;;;;;;;;;;10583599;28;20122;-87
2021/06/03 18:05:15;;;;;;;4.25;3.63;;;;;;;;;;10582592;28;20043;-86
2021/06/03 18:10:17;;;;;;;5.50;4.10;;;;;;;;;;10563942;28;20031;-87
2021/06/03 18:15:18;;;;;;;5.53;3.70;;;;;;;;;;10583906;28;20492;-88
2021/06/03 18:20:20;;;;;;;4.35;3.95;;;;;;;;;;10568023;28;20063;-88
2021/06/03 18:25:22;;;;;;;3.80;3.30;;;;;;;;;;10584999;28;20031;-87
2021/06/03 18:30:25;;;;;;;4.72;4.10;;;;;;;;;;10565189;28;20040;-87
2021/06/03 18:35:26;;;;;;;4.60;4.10;;;;;;;;;;10566262;28;20035;-87
2021/06/03 18:40:29;;;;;;;4.60;3.75;;;;;;;;;;10565584;28;20032;-87
2021/06/03 18:45:32;;;;;;;4.53;4.13;;;;;;;;;;10582877;28;20435;-87
2021/06/03 18:50:35;;;;;;;5.38;4.55;;;;;;;;;;10562346;28;20028;-87
2021/06/03 18:55:36;;;;;;;3.80;3.45;;;;;;;;;;10563378;28;20036;-87
2021/06/03 19:00:37;;;;;;;4.50;4.10;;;;;;;;;;10566717;28;20039;-88
2021/06/03 19:05:38;;;;;;;4.85;4.43;;;;;;;;;;10570410;28;20039;-88
2021/06/03 19:10:44;;;;;;;4.75;4.28;;;;;;;;;;10569236;28;20546;-87
2021/06/03 19:15:45;;;;;;;5.00;4.50;;;;;;;;;;10572385;28;20051;-87
2021/06/03 19:20:46;;;;;;;5.15;4.65;;;;;;;;;;10570999;28;20028;-87
2021/06/03 19:25:47;;;;;;;4.78;4.35;;;;;;;;;;10571830;28;20489;-87
2021/06/03 19:30:49;;;;;;;4.97;4.57;;;;;;;;;;10589787;28;20111;-87
2021/06/03 19:35:50;;;;;;;5.75;5.05;;;;;;;;;;10570760;28;20431;-87
2021/06/03 19:40:52;;;;;;;6.75;5.63;;;;;;;;;;10569919;28;20048;-87
2021/06/03 19:45:53;;;;;;;6.07;5.47;;;;;;;;;;10570069;28;20067;-87
2021/06/03 19:50:54;;;;;;;6.03;5.45;;;;;;;;;;10570290;28;20074;-88
2021/06/03 19:55:55;;;;;;;6.28;5.72;;;;;;;;;;10569902;28;20031;-88
2021/06/03 20:00:57;;;;;;;6.20;5.50;;;;;;;;;;10569585;28;20039;-88
2021/06/03 20:05:59;;;;;;;8.85;5.45;;;;;;;;;;10570293;28;20032;-87
2021/06/03 20:11:00;;;;;;;5.90;5.18;;;;;;;;;;10568867;28;20042;-88
2021/06/03 20:16:01;;;;;;;6.28;5.68;;;;;;;;;;10570372;28;20034;-87
